createdAt,value
2022-10-01T00:02:07.288Z,3.27
2022-10-01T00:04:37.140Z,3.83
2022-10-01T00:07:09.523Z,2.40
2022-10-01T00:09:37.348Z,1.48
2022-10-01T00:12:04.802Z,1.87
2022-10-01T00:14:32.340Z,1.57
2022-10-01T00:17:00.118Z,1.55
2022-10-01T00:19:28.068Z,1.10
2022-10-01T00:21:55.504Z,1.30
2022-10-01T00:24:23.621Z,1.40
2022-10-01T00:26:51.091Z,1.10
2022-10-01T00:29:18.577Z,1.42
2022-10-01T00:31:46.393Z,2.17
2022-10-01T00:34:15.459Z,1.80
2022-10-01T00:36:42.949Z,1.85
2022-10-01T00:39:11.930Z,1.83
2022-10-01T00:41:39.734Z,2.33
2022-10-01T00:44:30.479Z,1.70
2022-10-01T00:47:03.495Z,1.65
2022-10-01T00:49:33.543Z,1.77
2022-10-01T00:52:05.288Z,1.70
2022-10-01T00:54:42.662Z,1.30
2022-10-01T00:57:10.735Z,1.75
2022-10-01T00:59:38.232Z,1.90
2022-10-01T01:02:05.775Z,1.50
2022-10-01T01:04:33.602Z,1.67
2022-10-01T01:07:03.311Z,4.90
2022-10-01T01:09:34.103Z,5.80
2022-10-01T01:12:24.715Z,5.95
2022-10-01T01:15:04.885Z,6.12
2022-10-01T01:17:37.939Z,5.00
2022-10-01T01:20:14.362Z,4.70
2022-10-01T01:22:48.421Z,3.50
2022-10-01T01:25:18.825Z,2.90
2022-10-01T01:28:09.317Z,2.70
2022-10-01T01:30:41.157Z,2.03
2022-10-01T01:33:14.662Z,2.00
2022-10-01T01:35:49.486Z,1.90
2022-10-01T01:38:22.135Z,1.95
2022-10-01T01:40:51.514Z,1.62
2022-10-01T01:43:24.367Z,1.90
2022-10-01T01:45:55.204Z,1.35
2022-10-01T01:48:24.293Z,1.20
2022-10-01T01:50:58.917Z,1.20
2022-10-01T01:53:26.723Z,1.30
2022-10-01T01:55:54.269Z,1.20
2022-10-01T01:58:22.291Z,1.35
2022-10-01T02:00:54.392Z,0.90
2022-10-01T02:03:25.332Z,1.58
2022-10-01T02:06:01.752Z,1.40
2022-10-01T02:08:41.012Z,1.40
2022-10-01T02:11:17.588Z,1.52
2022-10-01T02:14:00.198Z,1.70
2022-10-01T02:16:42.204Z,1.60
2022-10-01T02:19:25.349Z,1.70
2022-10-01T02:21:57.049Z,1.70
2022-10-01T02:24:34.970Z,1.60
2022-10-01T02:27:06.140Z,2.00
2022-10-01T02:29:35.528Z,1.87
2022-10-01T02:32:03.074Z,2.20
2022-10-01T02:34:31.046Z,2.60
2022-10-01T02:37:00.476Z,3.28
2022-10-01T02:39:29.596Z,2.58
2022-10-01T02:41:58.379Z,3.15
2022-10-01T02:44:37.871Z,2.83
2022-10-01T02:47:25.214Z,3.07
2022-10-01T02:49:53.252Z,3.30
2022-10-01T02:52:42.604Z,2.60
2022-10-01T02:55:20.280Z,2.50
2022-10-01T02:57:48.249Z,2.40
2022-10-01T03:00:21.280Z,2.20
2022-10-01T03:02:49.724Z,2.03
2022-10-01T03:05:18.081Z,2.08
2022-10-01T03:07:45.837Z,1.75
2022-10-01T03:10:16.121Z,2.10
2022-10-01T03:12:46.469Z,2.00
2022-10-01T03:15:17.147Z,1.30
2022-10-01T03:17:45.217Z,0.95
2022-10-01T03:20:12.749Z,0.88
2022-10-01T03:22:40.181Z,0.80
2022-10-01T03:25:08.382Z,1.00
2022-10-01T03:27:35.860Z,1.10
2022-10-01T03:30:03.642Z,1.37
2022-10-01T03:32:32.235Z,1.10
2022-10-01T03:34:59.672Z,1.10
2022-10-01T03:37:27.161Z,1.27
2022-10-01T03:39:54.952Z,1.70
2022-10-01T03:42:22.368Z,2.05
2022-10-01T03:44:49.890Z,2.10
2022-10-01T03:47:17.839Z,2.30
2022-10-01T03:49:45.388Z,1.90
2022-10-01T03:52:12.805Z,2.28
2022-10-01T03:54:40.522Z,2.70
2022-10-01T03:57:07.958Z,1.80
2022-10-01T03:59:36.156Z,2.17
2022-10-01T04:02:04.020Z,2.07
2022-10-01T04:04:31.843Z,2.33
2022-10-01T04:06:59.293Z,1.45
2022-10-01T04:09:26.705Z,0.90
2022-10-01T04:11:55.093Z,0.50
2022-10-01T04:14:22.515Z,0.67
2022-10-01T04:16:52.445Z,0.57
2022-10-01T04:19:20.621Z,0.40
2022-10-01T04:21:48.144Z,0.45
2022-10-01T04:24:15.679Z,0.50
2022-10-01T04:26:43.425Z,0.30
2022-10-01T04:29:10.933Z,0.50
2022-10-01T04:31:38.907Z,0.40
2022-10-01T04:34:06.971Z,0.60
2022-10-01T04:36:34.655Z,0.45
2022-10-01T04:39:02.941Z,0.53
2022-10-01T04:41:32.195Z,0.68
2022-10-01T04:44:00.562Z,0.60
2022-10-01T04:46:30.985Z,0.90
2022-10-01T04:48:58.790Z,0.95
2022-10-01T04:51:26.264Z,0.80
2022-10-01T04:53:53.747Z,0.50
2022-10-01T04:56:21.464Z,0.50
2022-10-01T04:58:49.137Z,0.52
2022-10-01T05:01:16.733Z,0.50
2022-10-01T05:03:44.462Z,0.50
2022-10-01T05:06:11.921Z,0.60
2022-10-01T05:08:39.432Z,0.50
2022-10-01T05:11:07.198Z,0.60
2022-10-01T05:13:34.661Z,0.60
2022-10-01T05:16:03.766Z,0.70
2022-10-01T05:18:32.438Z,0.88
2022-10-01T05:21:05.610Z,0.95
2022-10-01T05:23:33.866Z,1.45
2022-10-01T05:26:01.351Z,1.60
2022-10-01T05:28:29.256Z,1.30
2022-10-01T05:31:00.505Z,0.90
2022-10-01T05:33:28.934Z,0.70
2022-10-01T05:35:59.914Z,0.75
2022-10-01T05:38:27.388Z,1.00
2022-10-01T05:40:54.976Z,0.97
2022-10-01T05:43:23.028Z,0.90
2022-10-01T05:45:51.261Z,1.02
2022-10-01T05:48:19.099Z,1.37
2022-10-01T05:50:46.974Z,1.52
2022-10-01T05:53:15.752Z,1.50
2022-10-01T05:55:43.213Z,2.30
2022-10-01T05:58:13.496Z,2.30
2022-10-01T06:00:42.402Z,2.17
2022-10-01T06:03:12.916Z,2.50
2022-10-01T06:05:40.674Z,2.73
2022-10-01T06:08:11.717Z,2.55
2022-10-01T06:10:39.872Z,2.37
2022-10-01T06:13:07.540Z,2.30
2022-10-01T06:15:40.260Z,2.67
2022-10-01T06:18:09.980Z,2.50
2022-10-01T06:20:38.718Z,3.03
2022-10-01T06:23:07.462Z,2.85
2022-10-01T06:25:36.446Z,2.90
2022-10-01T06:28:05.941Z,2.55
2022-10-01T06:30:34.658Z,3.50
2022-10-01T06:33:07.055Z,3.37
2022-10-01T06:35:36.365Z,3.25
2022-10-01T06:38:04.759Z,3.78
2022-10-01T06:40:32.532Z,3.70
2022-10-01T06:43:00.050Z,3.37
2022-10-01T06:45:29.890Z,3.78
2022-10-01T06:47:59.769Z,3.67
2022-10-01T06:50:27.329Z,4.03
2022-10-01T06:52:55.937Z,4.35
2022-10-01T06:55:32.124Z,4.67
2022-10-01T06:58:08.840Z,5.00
2022-10-01T07:00:38.953Z,5.00
2022-10-01T07:03:10.943Z,4.70
2022-10-01T07:05:39.245Z,4.57
2022-10-01T07:08:07.695Z,6.60
2022-10-01T07:10:35.526Z,6.93
2022-10-01T07:13:14.096Z,6.22
2022-10-01T07:15:42.140Z,5.45
2022-10-01T07:18:09.817Z,6.03
2022-10-01T07:20:39.919Z,5.47
2022-10-01T07:23:14.796Z,6.60
2022-10-01T07:25:43.141Z,7.47
2022-10-01T07:28:18.142Z,7.72
2022-10-01T07:30:48.535Z,7.87
2022-10-01T07:33:19.398Z,9.53
2022-10-01T10:22:12.542Z,14.63
2022-10-01T10:24:40.757Z,14.65
2022-10-01T10:27:22.143Z,15.45
2022-10-01T10:30:14.222Z,15.10
2022-10-01T10:32:42.098Z,14.13
2022-10-01T10:35:13.735Z,14.13
2022-10-01T10:37:50.255Z,14.23
2022-10-01T10:40:28.493Z,13.55
2022-10-01T10:42:58.497Z,11.85
2022-10-01T10:45:33.238Z,14.43
2022-10-01T10:48:01.457Z,13.20
2022-10-01T10:50:36.663Z,12.25
2022-10-01T10:53:25.096Z,12.60
2022-10-01T10:56:00.254Z,12.32
2022-10-01T10:58:42.328Z,12.70
2022-10-01T11:01:13.716Z,7.50
2022-10-01T11:03:55.312Z,7.43
2022-10-01T11:06:23.346Z,7.53
2022-10-01T11:08:59.576Z,7.12
2022-10-01T11:11:40.493Z,7.28
2022-10-01T11:14:24.390Z,7.23
2022-10-01T11:17:05.958Z,7.80
2022-10-01T11:19:39.211Z,7.70
2022-10-01T11:22:25.192Z,8.90
2022-10-01T11:24:59.592Z,7.82
2022-10-01T11:27:36.504Z,7.83
2022-10-01T11:30:20.811Z,8.70
2022-10-01T11:33:06.727Z,7.82
2022-10-01T11:36:12.147Z,7.62
2022-10-01T11:38:46.797Z,7.62
2022-10-01T11:41:31.081Z,6.90
2022-10-01T11:44:11.715Z,6.15
2022-10-01T11:46:50.153Z,5.50
2022-10-01T11:49:46.269Z,4.70
2022-10-01T11:52:18.397Z,4.50
2022-10-01T11:55:19.434Z,4.73
2022-10-01T11:58:11.511Z,5.12
2022-10-01T12:00:39.901Z,5.95
2022-10-01T12:03:14.582Z,4.87
2022-10-01T12:05:43.111Z,4.75
2022-10-01T12:08:32.045Z,4.00
2022-10-01T12:11:13.030Z,5.00
2022-10-01T12:13:44.669Z,4.80
2022-10-01T12:16:30.992Z,4.68
2022-10-01T12:19:02.928Z,5.20
2022-10-01T12:21:36.974Z,5.63
2022-10-01T12:24:12.042Z,5.47
2022-10-01T12:27:00.991Z,5.50
2022-10-01T12:29:53.636Z,5.12
2022-10-01T12:32:31.992Z,4.80
2022-10-01T12:35:25.916Z,5.60
2022-10-01T12:38:06.389Z,5.07
2022-10-01T12:40:58.656Z,5.40
2022-10-01T12:43:35.291Z,6.53
2022-10-01T12:46:21.973Z,6.25
2022-10-01T12:49:22.266Z,6.27
2022-10-01T12:52:10.249Z,5.87
2022-10-01T12:54:59.925Z,5.75
2022-10-01T12:57:39.954Z,6.40
2022-10-01T13:00:18.812Z,7.75
2022-10-01T13:02:46.579Z,8.20
2022-10-01T13:05:31.981Z,9.15
2022-10-01T13:08:02.460Z,9.05
2022-10-01T13:11:07.163Z,9.43
2022-10-01T13:13:34.990Z,9.60
2022-10-01T13:16:05.674Z,9.10
2022-10-01T13:18:48.417Z,9.48
2022-10-01T13:21:23.151Z,8.85
2022-10-01T13:24:01.496Z,9.60
2022-10-01T13:26:39.698Z,9.70
2022-10-01T13:29:43.944Z,9.33
2022-10-01T13:32:31.265Z,8.80
2022-10-01T13:35:19.723Z,9.32
2022-10-01T13:37:47.575Z,8.45
2022-10-01T13:40:33.274Z,9.68
2022-10-01T13:43:20.413Z,9.37
2022-10-01T13:45:49.768Z,9.10
2022-10-01T13:48:23.672Z,8.80
2022-10-01T13:51:05.148Z,9.27
2022-10-01T13:53:36.874Z,8.40
2022-10-01T13:56:05.448Z,7.80
2022-10-01T13:58:39.212Z,7.22
2022-10-01T14:01:27.330Z,7.93
2022-10-01T14:04:08.581Z,7.18
2022-10-01T14:06:36.496Z,7.80
2022-10-01T14:09:34.108Z,7.73
2022-10-01T14:12:25.506Z,8.30
2022-10-01T14:15:15.603Z,9.82
2022-10-01T14:17:44.568Z,10.45
2022-10-01T14:20:24.525Z,11.80
2022-10-01T14:23:04.546Z,10.13
2022-10-01T14:26:03.224Z,18.15
2022-10-01T14:28:39.468Z,9.57
2022-10-01T14:31:50.108Z,9.35
2022-10-01T14:34:24.700Z,9.77
2022-10-01T14:36:53.732Z,8.83
2022-10-01T14:39:24.059Z,7.80
2022-10-01T14:41:53.581Z,8.00
2022-10-01T14:44:22.707Z,8.05
2022-10-01T14:46:51.828Z,7.72
2022-10-01T14:49:30.233Z,7.47
2022-10-01T14:52:03.297Z,7.50
2022-10-01T14:54:44.510Z,7.12
2022-10-01T14:57:14.788Z,6.95
2022-10-01T14:59:42.728Z,7.00
2022-10-01T15:02:21.503Z,6.83
2022-10-01T15:04:51.633Z,6.40
2022-10-01T15:07:19.553Z,6.43
2022-10-01T15:09:47.987Z,6.18
2022-10-01T15:12:18.230Z,6.10
2022-10-01T15:14:47.201Z,5.53
2022-10-01T15:17:20.703Z,6.00
2022-10-01T15:19:53.627Z,5.95
2022-10-01T15:22:23.404Z,5.75
2022-10-01T15:24:53.402Z,4.93
2022-10-01T15:27:21.125Z,4.87
2022-10-01T15:29:56.541Z,4.25
2022-10-01T15:32:26.001Z,4.10
2022-10-01T15:34:58.767Z,4.03
2022-10-01T15:37:36.257Z,3.87
2022-10-01T15:40:21.084Z,3.57
2022-10-01T15:43:07.511Z,3.80
2022-10-01T15:45:35.594Z,3.58
2022-10-01T15:48:03.613Z,3.40
2022-10-01T15:50:32.662Z,3.70
2022-10-01T15:53:03.840Z,3.80
2022-10-01T15:55:44.228Z,3.85
2022-10-01T15:58:21.235Z,4.00
2022-10-01T16:00:59.533Z,3.70
2022-10-01T16:03:32.529Z,4.22
2022-10-01T16:06:02.079Z,4.20
2022-10-01T16:08:39.686Z,4.10
2022-10-01T16:11:13.223Z,4.28
2022-10-01T16:13:44.761Z,3.97
2022-10-01T16:16:23.510Z,4.68
2022-10-01T16:18:59.937Z,5.03
2022-10-01T16:21:27.513Z,4.80
2022-10-01T16:23:56.047Z,5.32
2022-10-01T16:26:38.160Z,3.97
2022-10-01T16:29:22.686Z,4.68
2022-10-01T16:31:50.551Z,4.47
2022-10-01T16:34:20.254Z,5.40
2022-10-01T16:36:47.807Z,4.45
2022-10-01T16:39:15.641Z,4.30
2022-10-01T16:41:44.761Z,4.75
2022-10-01T16:44:13.743Z,4.57
2022-10-01T16:46:41.611Z,4.65
2022-10-01T16:49:13.724Z,5.30
2022-10-01T16:51:42.454Z,6.28
2022-10-01T16:54:19.967Z,6.15
2022-10-01T16:56:47.628Z,6.03
2022-10-01T16:59:15.547Z,5.90
2022-10-01T17:01:43.675Z,6.05
2022-10-01T17:04:12.452Z,5.53
2022-10-01T17:06:40.984Z,5.20
2022-10-01T17:09:08.666Z,4.97
2022-10-01T17:11:36.616Z,5.43
2022-10-01T17:14:08.750Z,5.45
2022-10-01T17:16:36.707Z,4.97
2022-10-01T17:19:04.845Z,5.15
2022-10-01T17:21:32.484Z,4.67
2022-10-01T17:24:00.635Z,4.72
2022-10-01T17:26:28.537Z,4.97
2022-10-01T17:28:56.070Z,4.97
2022-10-01T17:31:23.668Z,4.65
2022-10-01T17:33:52.218Z,4.50
2022-10-01T17:36:19.746Z,4.45
2022-10-01T17:38:47.409Z,3.92
2022-10-01T17:41:15.150Z,3.33
2022-10-01T17:43:42.599Z,4.15
2022-10-01T17:46:10.265Z,3.60
2022-10-01T17:48:38.152Z,3.75
2022-10-01T17:51:08.447Z,3.70
2022-10-01T17:53:42.275Z,3.72
2022-10-01T17:56:16.359Z,3.75
2022-10-01T17:58:45.892Z,2.97
2022-10-01T18:01:16.301Z,3.28
2022-10-01T18:03:44.132Z,3.20
2022-10-01T18:06:16.135Z,2.97
2022-10-01T18:08:55.164Z,2.83
2022-10-01T18:11:27.637Z,2.50
2022-10-01T18:13:55.751Z,2.83
2022-10-01T18:16:23.682Z,3.30
2022-10-01T18:21:47.642Z,4.30
2022-10-01T18:24:15.902Z,4.00
2022-10-01T18:26:45.599Z,4.37
2022-10-01T18:29:21.709Z,4.57
2022-10-01T18:31:54.367Z,4.85
2022-10-01T18:34:28.733Z,5.22
2022-10-01T18:37:05.469Z,4.77
2022-10-01T18:39:47.147Z,5.28
2022-10-01T18:42:27.566Z,5.12
2022-10-01T18:44:57.197Z,6.18
2022-10-01T18:47:39.971Z,6.40
2022-10-01T18:50:32.517Z,5.90
2022-10-01T18:53:26.317Z,6.18
2022-10-01T18:56:07.990Z,6.65
2022-10-01T18:59:04.717Z,7.80
2022-10-01T19:01:44.991Z,7.43
2022-10-01T19:04:17.077Z,8.60
2022-10-01T19:06:47.575Z,8.23
2022-10-01T19:09:51.997Z,7.68
2022-10-01T19:12:34.418Z,7.47
2022-10-01T19:15:08.496Z,7.43
2022-10-01T19:17:47.882Z,7.40
2022-10-01T19:20:35.313Z,6.87
2022-10-01T19:23:40.744Z,6.95
2022-10-01T19:26:19.796Z,6.15
2022-10-01T19:29:09.425Z,6.47
2022-10-01T19:32:03.574Z,6.43
2022-10-01T19:34:39.577Z,5.95
2022-10-01T19:37:32.169Z,6.00
2022-10-01T19:40:12.519Z,6.35
2022-10-01T19:42:44.865Z,6.15
2022-10-01T19:45:24.153Z,6.60
2022-10-01T19:48:07.895Z,6.43
2022-10-01T19:50:38.890Z,6.57
2022-10-01T19:53:16.821Z,6.93
2022-10-01T19:55:45.145Z,6.28
2022-10-01T19:58:18.271Z,6.23
2022-10-01T20:00:49.552Z,6.07
2022-10-01T20:03:34.474Z,6.43
2022-10-01T20:06:18.210Z,5.70
2022-10-01T20:08:52.767Z,5.37
2022-10-01T20:11:37.660Z,6.30
2022-10-01T20:14:38.773Z,6.35
2022-10-01T20:17:15.816Z,6.40
2022-10-01T20:19:52.169Z,6.90
2022-10-01T20:22:36.679Z,6.97
2022-10-01T20:25:30.794Z,6.67
2022-10-01T20:28:36.406Z,6.97
2022-10-01T20:31:16.229Z,6.15
2022-10-01T20:34:02.087Z,6.95
2022-10-01T20:36:56.748Z,6.50
2022-10-01T20:39:44.110Z,6.63
2022-10-01T20:42:18.157Z,5.97
2022-10-01T20:44:46.206Z,5.82
2022-10-01T20:47:35.628Z,5.85
2022-10-01T20:50:25.711Z,5.47
2022-10-01T20:53:29.632Z,5.57
2022-10-01T20:56:03.004Z,6.47
2022-10-01T20:58:43.598Z,6.60
2022-10-01T21:01:20.554Z,6.10
2022-10-01T21:03:53.692Z,6.45
2022-10-01T21:06:26.626Z,5.37
2022-10-01T21:09:01.072Z,5.72
2022-10-01T21:11:33.452Z,5.20
2022-10-01T21:14:10.720Z,4.82
2022-10-01T21:16:44.597Z,4.50
2022-10-01T21:19:17.400Z,3.73
2022-10-01T21:22:03.956Z,3.40
2022-10-01T21:24:41.801Z,3.42
2022-10-01T21:27:09.217Z,2.72
2022-10-01T21:29:45.715Z,2.50
2022-10-01T21:32:19.027Z,2.43
2022-10-01T21:34:55.575Z,2.55
2022-10-01T21:37:48.037Z,2.47
2022-10-01T21:40:32.923Z,2.53
2022-10-01T21:43:03.280Z,2.92
2022-10-01T21:45:39.153Z,3.00
2022-10-01T21:48:52.789Z,2.40
2022-10-01T21:51:39.214Z,2.30
2022-10-01T21:54:22.523Z,2.62
2022-10-01T21:57:10.314Z,2.20
2022-10-01T21:59:43.903Z,2.87
2022-10-01T22:02:34.912Z,2.40
2022-10-01T22:05:22.482Z,2.60
2022-10-01T22:08:08.047Z,2.33
2022-10-01T22:10:43.157Z,2.05
2022-10-01T22:13:16.379Z,2.50
2022-10-01T22:15:44.808Z,2.37
2022-10-01T22:18:18.641Z,1.95
2022-10-01T22:20:47.192Z,2.65
2022-10-01T22:23:17.660Z,2.60
2022-10-01T22:25:54.325Z,2.70
2022-10-01T22:28:34.458Z,2.58
2022-10-01T22:31:03.529Z,2.08
2022-10-01T22:33:37.936Z,2.20
2022-10-01T22:36:11.932Z,2.40
2022-10-01T22:38:49.032Z,2.00
2022-10-01T22:41:21.100Z,1.92
2022-10-01T22:43:48.900Z,1.83
2022-10-01T22:46:39.373Z,1.70
2022-10-01T22:49:27.637Z,2.30
2022-10-01T22:52:10.442Z,2.30
2022-10-01T22:55:24.648Z,2.08
2022-10-01T22:57:56.197Z,2.20
2022-10-01T23:00:24.134Z,1.90
2022-10-01T23:03:10.028Z,2.20
2022-10-01T23:05:49.842Z,2.20
2022-10-01T23:08:28.943Z,2.05
2022-10-01T23:11:32.045Z,2.00
2022-10-01T23:14:05.523Z,1.83
2022-10-01T23:16:51.491Z,2.03
2022-10-01T23:20:04.379Z,2.20
2022-10-01T23:22:41.308Z,1.40
2022-10-01T23:25:43.991Z,2.05
2022-10-01T23:28:40.778Z,1.83
2022-10-01T23:31:27.192Z,1.92
2022-10-01T23:34:12.477Z,1.60
2022-10-01T23:36:53.525Z,1.60
2022-10-01T23:39:52.627Z,1.80
2022-10-01T23:42:27.116Z,1.62
2022-10-01T23:45:03.104Z,1.60
2022-10-01T23:47:38.578Z,1.70
2022-10-01T23:50:08.523Z,1.25
2022-10-01T23:52:42.818Z,1.42
2022-10-01T23:55:45.413Z,1.42
2022-10-01T23:58:14.454Z,1.10
